Terminal Aerodrome Forecast
Issued by NWS

Home | Current Version | Previous Version | Text Only | Print | Product List | Glossary On
Versions: 1 2 3 4 5 6 7 8 9 10 11 12 13 14 15 16 17
000
FTUS42 KTBW 260500
TAFPGD
TAF
KPGD 260537Z 2606/2706 18005KT P6SM SCT040
     FM261100 24011G17KT P6SM VCSH SCT015 BKN030
      TEMPO 2611/2614 4SM SHRA BKN015
     FM261400 30014G22KT P6SM VCSH SCT015 OVC035
     FM261700 30020G30KT P6SM FEW020 BKN035
     FM270300 30010KT P6SM SCT035=

USA.gov is the U.S. government's official web portal to all federal, state and local government web resources and services.